Time;durP1;ratioP1;P1;durP2;ratioP2;P2;SDS_P1;SDS_P2;PMS_P1;PMS_P2;Temp;Humidity;BMP_temperature;BMP_pressure;BME280_temperature;BME280_humidity;BME280_pressure;Samples;Min_cycle;Max_cycle;Signal;HPM_P1;HPM_P2
2021/05/01 00:01:41;;;;;;;18.77;11.02;;;;;;;7.67;92.72;96305.88;5023962;28;20042;-64
2021/05/01 00:04:06;;;;;;;18.80;11.32;;;;;;;7.71;93.23;96305.94;5018233;28;20069;-62
2021/05/01 00:06:32;;;;;;;16.30;11.23;;;;;;;7.86;92.46;96299.63;5022383;28;20136;-61
2021/05/01 00:08:57;;;;;;;16.90;11.50;;;;;;;7.98;92.29;96294.03;5029701;28;20073;-60
2021/05/01 00:11:23;;;;;;;16.33;10.82;;;;;;;8.11;91.43;96291.16;5004145;28;20605;-63
2021/05/01 00:13:50;;;;;;;18.25;11.48;;;;;;;8.14;90.84;96293.16;4997556;28;20053;-64
2021/05/01 00:16:16;;;;;;;15.20;10.30;;;;;;;8.11;90.47;96296.63;5007089;28;20049;-60
2021/05/01 00:18:41;;;;;;;15.95;10.40;;;;;;;8.13;90.26;96305.22;5006051;28;20045;-60
2021/05/01 00:21:06;;;;;;;13.13;9.65;;;;;;;8.09;90.95;96296.97;5001157;28;20076;-62
2021/05/01 00:23:32;;;;;;;15.15;10.10;;;;;;;8.08;91.22;96306.28;5004922;28;20065;-63
2021/05/01 00:25:59;;;;;;;16.13;10.13;;;;;;;7.91;90.94;96312.97;5037983;28;20049;-62
2021/05/01 00:28:25;;;;;;;19.38;11.57;;;;;;;7.75;91.91;96295.91;5020596;28;20555;-63
2021/05/01 00:30:50;;;;;;;20.48;12.43;;;;;;;7.75;92.19;96299.41;5024628;28;20037;-59
2021/05/01 00:33:15;;;;;;;19.30;11.95;;;;;;;7.90;93.08;96297.75;5019153;28;20045;-61
2021/05/01 00:35:43;;;;;;;19.48;12.15;;;;;;;7.92;92.69;96298.19;5024338;28;20056;-64
2021/05/01 00:38:09;;;;;;;19.45;11.82;;;;;;;8.01;91.91;96301.50;5016191;28;20060;-61
2021/05/01 00:40:34;;;;;;;17.60;11.32;;;;;;;8.10;92.13;96298.53;5021069;28;20045;-62
2021/05/01 00:43:00;;;;;;;18.73;11.57;;;;;;;8.18;91.34;96305.72;5020187;28;20037;-61
2021/05/01 00:45:26;;;;;;;19.85;11.10;;;;;;;8.29;90.80;96303.19;5008245;28;20049;-61
2021/05/01 00:47:51;;;;;;;18.70;12.18;;;;;;;8.29;91.37;96299.69;5001236;28;20042;-63
2021/05/01 00:50:17;;;;;;;20.02;11.77;;;;;;;8.33;90.83;96290.41;4995831;28;20133;-63
2021/05/01 00:52:43;;;;;;;17.65;12.18;;;;;;;8.33;90.81;96306.00;5000989;28;20057;-62
2021/05/01 00:55:09;;;;;;;19.15;12.25;;;;;;;8.28;90.87;96289.91;5008142;28;20100;-62
2021/05/01 00:57:38;;;;;;;18.60;11.70;;;;;;;8.13;90.71;96294.31;5021692;28;20046;-61
2021/05/01 01:00:12;;;;;;;20.33;11.88;;;;;;;8.03;91.29;96290.22;5006855;28;20077;-64
2021/05/01 01:02:37;;;;;;;20.67;11.98;;;;;;;7.98;91.81;96282.34;5017356;28;20663;-63
2021/05/01 01:05:04;;;;;;;21.83;12.90;;;;;;;7.98;91.75;96285.06;5020936;28;20045;-63
2021/05/01 01:07:29;;;;;;;19.65;11.82;;;;;;;8.00;91.38;96285.50;5006542;28;20067;-62
2021/05/01 01:09:55;;;;;;;20.65;12.52;;;;;;;7.80;91.60;96282.78;5011497;28;20045;-61
2021/05/01 01:12:20;;;;;;;18.38;11.52;;;;;;;7.70;92.01;96279.81;5007682;28;20041;-65
2021/05/01 01:14:46;;;;;;;19.98;12.63;;;;;;;7.71;92.46;96293.09;5021286;28;20523;-61
2021/05/01 01:17:11;;;;;;;21.73;12.70;;;;;;;7.65;92.24;96284.41;5016690;28;20076;-63
2021/05/01 01:19:38;;;;;;;21.50;12.98;;;;;;;7.64;92.81;96291.00;5018710;28;20132;-61
2021/05/01 01:22:15;;;;;;;23.77;13.75;;;;;;;7.52;92.89;96287.63;5017200;28;20038;-65
2021/05/01 01:24:40;;;;;;;21.83;13.18;;;;;;;7.39;92.71;96293.19;5018665;28;20042;-62
2021/05/01 01:27:07;;;;;;;22.63;13.57;;;;;;;7.32;93.71;96284.84;4993182;28;20034;-61
2021/05/01 01:29:37;;;;;;;23.98;14.20;;;;;;;7.41;93.83;96295.56;5020012;28;20133;-61
2021/05/01 01:32:03;;;;;;;24.85;15.50;;;;;;;7.39;94.14;96290.47;5019102;28;20079;-65
2021/05/01 01:34:29;;;;;;;24.27;13.82;;;;;;;7.22;93.88;96290.84;5018470;28;20038;-61
2021/05/01 01:36:54;;;;;;;24.63;14.07;;;;;;;7.27;94.40;96282.41;5026079;28;20063;-63
2021/05/01 01:39:21;;;;;;;25.92;14.07;;;;;;;7.25;94.41;96276.53;5024164;28;20072;-61
2021/05/01 01:41:46;;;;;;;26.13;14.48;;;;;;;7.23;94.46;96281.53;5035917;28;20125;-62
2021/05/01 01:44:12;;;;;;;24.73;14.40;;;;;;;7.34;94.30;96277.13;5020890;28;20053;-59
2021/05/01 01:46:37;;;;;;;22.65;14.45;;;;;;;7.41;94.80;96279.22;5020443;28;20045;-62
2021/05/01 01:49:03;;;;;;;23.25;13.85;;;;;;;7.29;94.16;96285.56;5015731;28;20041;-65
2021/05/01 01:51:28;;;;;;;23.33;14.02;;;;;;;7.30;94.40;96280.91;5019449;28;20038;-63
2021/05/01 01:53:53;;;;;;;23.23;13.57;;;;;;;7.47;94.22;96281.31;5024670;28;20049;-63
2021/05/01 01:56:19;;;;;;;21.70;13.18;;;;;;;7.59;93.40;96277.66;5019819;28;20528;-62
2021/05/01 01:58:44;;;;;;;21.67;13.77;;;;;;;7.65;92.83;96286.34;5026872;28;20042;-61
2021/05/01 02:01:10;;;;;;;22.88;13.43;;;;;;;7.62;92.66;96293.31;5012949;28;20049;-61
2021/05/01 02:03:37;;;;;;;24.42;13.52;;;;;;;7.50;92.25;96295.38;5018186;28;20053;-61
2021/05/01 02:06:02;;;;;;;23.48;12.98;;;;;;;7.19;93.48;96283.41;5015767;28;20143;-64
2021/05/01 02:08:28;;;;;;;22.98;12.95;;;;;;;7.13;94.15;96268.47;5020908;28;20152;-62
2021/05/01 02:10:53;;;;;;;21.77;13.50;;;;;;;7.11;94.52;96271.53;5024997;28;20065;-62
2021/05/01 02:13:19;;;;;;;23.15;13.45;;;;;;;7.07;94.66;96276.91;5017688;28;20072;-62
2021/05/01 02:15:44;;;;;;;26.02;14.68;;;;;;;6.91;95.33;96269.91;5016365;28;20048;-62
2021/05/01 02:18:10;;;;;;;26.95;14.95;;;;;;;6.74;96.33;96288.19;5017191;28;20041;-61
2021/05/01 02:20:37;;;;;;;28.20;14.50;;;;;;;6.76;96.77;96275.00;5024118;28;20073;-63
2021/05/01 02:23:04;;;;;;;30.23;15.57;;;;;;;6.68;97.05;96263.16;5027496;28;20087;-63
2021/05/01 02:25:30;;;;;;;29.67;15.75;;;;;;;6.57;97.33;96266.75;5023256;28;20447;-60
2021/05/01 02:27:56;;;;;;;36.22;16.92;;;;;;;6.44;99.21;96252.44;5023486;28;20041;-60
2021/05/01 02:30:26;;;;;;;36.40;17.58;;;;;;;6.47;99.85;96249.81;5017609;28;20049;-59
2021/05/01 02:32:53;;;;;;;39.05;19.38;;;;;;;6.54;99.68;96240.28;5021251;28;20038;-62
2021/05/01 02:35:25;;;;;;;35.33;17.17;;;;;;;6.59;100.00;96242.72;5018310;28;20033;-61
2021/05/01 02:37:52;;;;;;;36.17;16.33;;;;;;;6.69;99.66;96242.19;5023120;28;20050;-61
2021/05/01 02:40:18;;;;;;;39.15;17.80;;;;;;;6.76;99.78;96223.31;5018011;28;20037;-64
2021/05/01 02:42:45;;;;;;;36.67;18.85;;;;;;;6.96;99.76;96218.69;5023478;28;20131;-62
2021/05/01 02:45:13;;;;;;;33.05;16.02;;;;;;;7.14;99.17;96212.88;5018526;28;20056;-62
2021/05/01 02:47:39;;;;;;;31.88;16.73;;;;;;;6.98;98.09;96229.22;5026114;28;20068;-62
2021/05/01 02:50:08;;;;;;;31.02;16.10;;;;;;;6.95;97.46;96225.31;5019063;28;20037;-62
2021/05/01 02:52:34;;;;;;;32.95;17.00;;;;;;;7.08;97.47;96210.41;5029977;28;20037;-63
2021/05/01 02:55:00;;;;;;;30.63;15.80;;;;;;;7.28;96.96;96215.91;5037344;28;20041;-62
2021/05/01 02:57:25;;;;;;;28.58;15.95;;;;;;;7.10;94.74;96217.44;5024928;28;20049;-62
2021/05/01 02:59:51;;;;;;;27.23;15.95;;;;;;;7.08;94.55;96213.13;5022779;28;20420;-64
2021/05/01 03:02:17;;;;;;;28.20;15.45;;;;;;;7.17;94.79;96209.44;5018845;28;20041;-62
2021/05/01 03:04:42;;;;;;;29.58;16.27;;;;;;;7.11;93.55;96216.28;5024949;28;20061;-62
2021/05/01 03:07:08;;;;;;;34.92;18.52;;;;;;;6.79;94.32;96216.34;5018133;28;20037;-61
2021/05/01 03:09:33;;;;;;;39.45;20.13;;;;;;;6.78;95.38;96215.56;5022648;28;20048;-61
2021/05/01 03:11:58;;;;;;;40.28;19.67;;;;;;;6.82;95.89;96216.44;5022442;28;20041;-62
2021/05/01 03:14:25;;;;;;;40.90;19.77;;;;;;;6.78;95.58;96212.06;5018168;28;20049;-61
2021/05/01 03:16:54;;;;;;;41.40;20.95;;;;;;;6.71;95.87;96215.41;5022940;28;20103;-61
2021/05/01 03:19:21;;;;;;;45.60;21.80;;;;;;;6.58;96.92;96198.38;5017044;28;20397;-61
2021/05/01 03:21:47;;;;;;;50.63;23.25;;;;;;;6.51;97.76;96187.34;5015646;28;20153;-62
2021/05/01 03:24:13;;;;;;;52.05;23.85;;;;;;;6.45;98.52;96186.81;5005843;28;20074;-62
2021/05/01 03:26:41;;;;;;;57.58;23.23;;;;;;;6.42;98.76;96187.50;5019943;28;20072;-61
2021/05/01 03:29:07;;;;;;;56.05;24.45;;;;;;;6.35;98.83;96190.06;5017288;28;20052;-61
2021/05/01 03:31:33;;;;;;;57.47;24.23;;;;;;;6.38;98.67;96192.09;5021238;28;20374;-62
2021/05/01 03:33:59;;;;;;;55.95;22.27;;;;;;;6.30;98.16;96190.31;5019464;28;20045;-63
2021/05/01 03:36:25;;;;;;;52.22;21.67;;;;;;;6.34;98.46;96198.56;4998717;28;20037;-62
2021/05/01 03:38:50;;;;;;;56.17;22.75;;;;;;;6.38;98.37;96202.19;5021803;28;20034;-61
2021/05/01 03:41:16;;;;;;;56.00;23.48;;;;;;;6.34;97.72;96204.00;5005308;28;20056;-62
2021/05/01 03:43:41;;;;;;;51.83;21.40;;;;;;;6.42;98.11;96201.13;5021669;28;20044;-61
2021/05/01 03:46:07;;;;;;;52.38;20.92;;;;;;;6.46;97.94;96199.28;5017448;28;20136;-64
2021/05/01 03:48:32;;;;;;;51.65;22.25;;;;;;;6.65;96.84;96201.28;5004610;28;20131;-62
2021/05/01 03:50:58;;;;;;;43.42;18.85;;;;;;;6.79;96.63;96200.00;4985953;28;20044;-61
2021/05/01 03:53:23;;;;;;;46.95;20.10;;;;;;;6.83;95.78;96209.84;5011274;28;20598;-63
2021/05/01 03:55:49;;;;;;;43.63;20.48;;;;;;;6.80;94.86;96201.59;5018939;28;20077;-63
2021/05/01 03:58:14;;;;;;;41.83;19.48;;;;;;;6.62;95.21;96203.91;5016534;28;20072;-63
2021/05/01 04:00:40;;;;;;;41.95;18.88;;;;;;;6.59;95.31;96210.06;5020850;28;20132;-62
2021/05/01 04:03:06;;;;;;;49.83;22.40;;;;;;;6.59;95.88;96218.22;4995356;28;20059;-61
2021/05/01 04:05:31;;;;;;;41.33;17.77;;;;;;;6.44;95.93;96220.59;5018826;28;20069;-62
2021/05/01 04:07:57;;;;;;;44.72;18.63;;;;;;;6.50;95.81;96223.88;5022301;28;20076;-61
2021/05/01 04:10:22;;;;;;;43.28;18.42;;;;;;;6.60;95.84;96209.69;5016573;28;20367;-63
2021/05/01 04:12:48;;;;;;;42.42;18.95;;;;;;;6.44;96.62;96198.03;5003345;28;20049;-60
2021/05/01 04:15:14;;;;;;;39.40;18.73;;;;;;;6.44;95.10;96204.25;5026869;28;20041;-62
2021/05/01 04:17:39;;;;;;;41.70;18.25;;;;;;;6.38;94.99;96208.41;5031043;28;20056;-61
2021/05/01 04:20:05;;;;;;;42.75;20.27;;;;;;;6.18;95.91;96204.03;5015820;28;20061;-62
2021/05/01 04:22:30;;;;;;;43.50;18.73;;;;;;;6.15;96.82;96202.00;5012469;28;20080;-62
2021/05/01 04:24:56;;;;;;;47.45;20.65;;;;;;;6.00;96.44;96195.41;5013485;28;20037;-64
2021/05/01 04:27:21;;;;;;;41.28;19.20;;;;;;;6.04;96.32;96191.63;5016952;28;20714;-62
2021/05/01 04:29:47;;;;;;;46.00;19.33;;;;;;;6.05;96.41;96186.97;5021998;28;20045;-62
2021/05/01 04:32:12;;;;;;;45.78;19.15;;;;;;;6.04;96.13;96188.91;5010488;28;20034;-63
2021/05/01 04:34:38;;;;;;;43.22;19.08;;;;;;;6.00;95.67;96189.97;5014166;28;20102;-63
2021/05/01 04:37:03;;;;;;;44.65;18.75;;;;;;;5.91;96.45;96180.00;5005533;28;20046;-64
2021/05/01 04:39:29;;;;;;;45.33;19.05;;;;;;;5.89;96.84;96179.56;4997903;28;20052;-63
2021/05/01 04:41:55;;;;;;;40.00;17.65;;;;;;;5.89;96.67;96182.28;5010428;28;20084;-63
2021/05/01 04:44:21;;;;;;;38.13;16.77;;;;;;;5.87;96.08;96176.41;5016794;28;20470;-63
2021/05/01 04:46:53;;;;;;;41.78;16.65;;;;;;;5.87;96.28;96170.16;5010924;28;20104;-60
2021/05/01 04:49:19;;;;;;;42.30;17.23;;;;;;;5.83;96.76;96166.56;4996421;28;20049;-61
2021/05/01 04:51:45;;;;;;;38.60;17.77;;;;;;;5.77;95.44;96157.13;5001214;28;20373;-59
2021/05/01 04:54:11;;;;;;;40.88;16.80;;;;;;;5.80;95.10;96161.84;5001673;28;20037;-63
2021/05/01 04:56:36;;;;;;;39.58;18.77;;;;;;;5.81;94.51;96147.13;5022981;28;20122;-61
2021/05/01 04:59:03;;;;;;;36.22;16.02;;;;;;;5.88;94.13;96139.16;5014038;28;20053;-63
2021/05/01 05:01:28;;;;;;;31.33;15.63;;;;;;;5.82;92.95;96149.50;5004813;28;20408;-63
2021/05/01 05:03:54;;;;;;;31.70;14.38;;;;;;;5.86;93.25;96163.94;5018248;28;20053;-62
2021/05/01 05:06:19;;;;;;;30.73;13.57;;;;;;;5.82;91.99;96160.38;5001301;28;20108;-62
2021/05/01 05:08:45;;;;;;;29.98;14.25;;;;;;;5.91;92.80;96162.91;5012440;28;20111;-63
2021/05/01 05:11:10;;;;;;;30.27;14.57;;;;;;;5.98;92.37;96170.47;5012763;28;20043;-61
2021/05/01 05:13:36;;;;;;;28.38;13.38;;;;;;;6.00;91.91;96163.56;5020461;28;20041;-61
2021/05/01 05:16:01;;;;;;;29.35;13.45;;;;;;;6.22;91.66;96158.66;5001923;28;20133;-61
2021/05/01 05:18:28;;;;;;;28.40;13.20;;;;;;;6.12;91.22;96158.06;5007860;28;20374;-62
2021/05/01 05:20:53;;;;;;;24.88;12.88;;;;;;;6.02;90.92;96155.06;5016608;28;20037;-62
2021/05/01 05:23:19;;;;;;;28.38;14.55;;;;;;;6.00;91.42;96155.41;5016487;28;20142;-60
2021/05/01 05:25:44;;;;;;;28.15;14.25;;;;;;;6.06;91.40;96145.06;5020133;28;20052;-61
2021/05/01 05:28:10;;;;;;;26.05;12.70;;;;;;;6.06;91.39;96131.47;5015016;28;20038;-61
2021/05/01 05:30:35;;;;;;;28.67;14.85;;;;;;;6.33;90.65;96135.22;5017223;28;20151;-61
2021/05/01 05:33:01;;;;;;;26.40;13.45;;;;;;;6.43;90.41;96142.84;5020945;28;20044;-61
2021/05/01 05:35:27;;;;;;;28.30;14.52;;;;;;;6.49;88.94;96135.22;5018044;28;20494;-63
2021/05/01 05:37:52;;;;;;;24.55;13.23;;;;;;;6.75;89.02;96142.78;5026659;28;20045;-64
2021/05/01 05:40:18;;;;;;;24.48;12.75;;;;;;;6.89;88.58;96143.09;5027060;28;20041;-61
2021/05/01 05:42:44;;;;;;;22.85;12.43;;;;;;;6.77;87.50;96151.41;5030889;28;20045;-62
2021/05/01 05:45:11;;;;;;;21.73;11.60;;;;;;;7.15;87.07;96149.06;5019092;28;20069;-62
2021/05/01 05:47:37;;;;;;;25.42;12.68;;;;;;;6.97;87.55;96141.31;5020229;28;20044;-61
2021/05/01 05:50:03;;;;;;;22.40;12.48;;;;;;;6.90;87.34;96143.91;5005061;28;20041;-62
2021/05/01 05:52:30;;;;;;;20.25;11.68;;;;;;;7.13;88.28;96145.91;5005781;28;20088;-60
2021/05/01 05:54:58;;;;;;;19.52;10.82;;;;;;;7.46;86.83;96139.97;5016516;28;20037;-61
2021/05/01 05:57:24;;;;;;;21.45;11.38;;;;;;;7.40;86.44;96144.13;4995452;28;20966;-59
2021/05/01 05:59:49;;;;;;;22.50;11.95;;;;;;;7.69;86.22;96139.22;5000942;28;20042;-61
2021/05/01 06:02:15;;;;;;;22.40;11.98;;;;;;;8.06;85.27;96142.22;5015015;28;20041;-61
2021/05/01 06:05:09;;;;;;;19.85;11.35;;;;;;;8.42;82.43;96137.38;4995752;28;20091;-61
2021/05/01 06:07:37;;;;;;;21.05;12.43;;;;;;;8.32;80.89;96132.50;5004657;28;20049;-62
2021/05/01 06:10:05;;;;;;;19.48;10.57;;;;;;;8.06;82.77;96128.59;5029401;28;20084;-63
2021/05/01 06:12:33;;;;;;;19.55;10.60;;;;;;;7.97;83.56;96128.03;5027230;28;20131;-62
2021/05/01 06:15:02;;;;;;;20.48;10.70;;;;;;;7.79;83.14;96127.72;5021079;28;20046;-61
2021/05/01 06:17:28;;;;;;;19.65;10.48;;;;;;;7.76;86.01;96129.25;4992606;28;20543;-62
2021/05/01 06:19:57;;;;;;;20.05;10.70;;;;;;;7.82;85.42;96135.97;5020288;28;20041;-62
2021/05/01 06:22:24;;;;;;;25.05;13.13;;;;;;;7.77;85.46;96144.44;5014966;28;20093;-62
2021/05/01 06:24:49;;;;;;;19.40;10.85;;;;;;;7.61;84.97;96141.81;5017213;28;20046;-62
2021/05/01 06:27:16;;;;;;;17.50;10.25;;;;;;;8.09;84.58;96146.19;5009636;28;20754;-65
2021/05/01 06:29:44;;;;;;;21.17;11.50;;;;;;;7.72;84.71;96130.31;5025690;28;20049;-61
2021/05/01 06:32:14;;;;;;;21.45;11.57;;;;;;;7.28;86.96;96121.34;5013568;28;20048;-61
2021/05/01 06:34:39;;;;;;;;;;;;;;;7.33;85.75;96114.81;5009427;28;20088;-61
2021/05/01 06:37:06;;;;;;;24.35;13.40;;;;;;;7.11;87.62;96102.69;5014778;28;19956;-64
2021/05/01 06:39:34;;;;;;;24.52;12.75;;;;;;;7.47;86.44;96101.47;5023072;28;20433;-63
2021/05/01 06:42:03;;;;;;;26.13;13.13;;;;;;;7.18;87.67;96094.66;5026614;28;20086;-61
2021/05/01 06:44:42;;;;;;;24.77;12.80;;;;;;;7.29;87.35;96086.69;5031161;28;20042;-62
2021/05/01 06:47:10;;;;;;;25.90;12.13;;;;;;;7.76;86.99;96076.66;5019647;28;20103;-62
2021/05/01 06:49:52;;;;;;;24.95;13.43;;;;;;;7.92;86.78;96087.44;5017253;28;20681;-62
2021/05/01 06:52:18;;;;;;;24.20;14.10;;;;;;;8.15;85.52;96099.13;5014650;28;20045;-63
2021/05/01 06:54:45;;;;;;;27.13;14.63;;;;;;;7.73;87.25;96099.19;5019712;28;20056;-61
2021/05/01 06:57:13;;;;;;;26.35;14.20;;;;;;;7.37;87.29;96093.09;5012474;28;20034;-63
2021/05/01 06:59:40;;;;;;;28.92;14.88;;;;;;;7.54;85.90;96095.34;5012915;28;20115;-61
2021/05/01 07:02:06;;;;;;;30.15;14.57;;;;;;;7.35;87.78;96100.84;5014003;28;20038;-61
2021/05/01 07:04:31;;;;;;;27.63;14.38;;;;;;;7.44;87.34;96099.47;5021356;28;20052;-61
2021/05/01 07:06:57;;;;;;;30.75;15.85;;;;;;;7.69;86.40;96109.22;5021330;28;20041;-62
2021/05/01 07:09:22;;;;;;;26.48;14.50;;;;;;;7.84;85.65;96106.41;5016086;28;20046;-61
2021/05/01 07:11:48;;;;;;;26.35;13.10;;;;;;;7.91;85.86;96103.00;5018272;28;20053;-62
2021/05/01 07:14:14;;;;;;;22.05;11.43;;;;;;;7.98;85.18;96099.63;5018197;28;20060;-59
2021/05/01 07:16:41;;;;;;;22.80;11.90;;;;;;;7.97;84.35;96107.00;5015223;28;20097;-59
2021/05/01 07:19:08;;;;;;;21.23;11.75;;;;;;;8.09;85.07;96108.78;5017501;28;20062;-61
2021/05/01 07:21:35;;;;;;;25.00;13.35;;;;;;;8.32;83.76;96108.75;5022847;28;20184;-62
2021/05/01 07:24:01;;;;;;;27.48;14.48;;;;;;;8.50;83.69;96108.25;5021183;28;20034;-63
2021/05/01 07:26:27;;;;;;;22.80;12.30;;;;;;;8.65;81.92;96117.44;5013672;28;20068;-62
2021/05/01 07:28:53;;;;;;;24.25;12.75;;;;;;;8.76;82.08;96113.69;5018673;28;20501;-61
2021/05/01 07:31:24;;;;;;;18.90;10.63;;;;;;;9.47;79.68;96109.50;5011904;28;20044;-62
2021/05/01 07:33:57;;;;;;;19.88;10.75;;;;;;;9.73;76.05;96114.09;5021979;28;20120;-62
2021/05/01 07:36:39;;;;;;;19.38;11.20;;;;;;;10.02;75.84;96111.63;5008142;28;20061;-61
2021/05/01 07:39:08;;;;;;;21.70;11.43;;;;;;;10.47;74.11;96104.19;5011471;28;20057;-62
2021/05/01 07:41:35;;;;;;;17.83;10.35;;;;;;;10.51;74.32;96099.53;5061526;23;21222;-62
2021/05/01 07:44:01;;;;;;;20.27;11.10;;;;;;;10.19;74.04;96091.84;4988401;28;20568;-62
2021/05/01 07:46:30;;;;;;;24.00;12.60;;;;;;;10.00;75.56;96090.09;5002463;28;20148;-62
2021/05/01 07:48:55;;;;;;;22.10;12.82;;;;;;;9.77;76.96;96074.66;5019659;28;20127;-60
2021/05/01 07:51:22;;;;;;;22.42;12.05;;;;;;;9.84;75.46;96079.41;5008840;28;20069;-62
2021/05/01 07:53:49;;;;;;;22.92;12.85;;;;;;;9.36;79.15;96077.38;5009393;28;20412;-62
2021/05/01 07:56:14;;;;;;;23.55;12.40;;;;;;;9.80;77.91;96069.63;5012739;28;20196;-62
2021/05/01 07:58:40;;;;;;;24.50;14.35;;;;;;;9.76;77.53;96066.84;5006675;28;20088;-63
2021/05/01 08:01:05;;;;;;;25.40;14.60;;;;;;;8.45;81.37;96065.69;5014410;28;20104;-60
2021/05/01 08:03:31;;;;;;;26.75;14.93;;;;;;;8.73;81.77;96075.44;4998957;28;20103;-62
2021/05/01 08:05:56;;;;;;;26.88;13.90;;;;;;;8.68;82.15;96060.16;5018151;28;20626;-61
2021/05/01 08:08:22;;;;;;;26.33;14.65;;;;;;;8.48;83.04;96058.69;5014652;28;20558;-61
2021/05/01 08:10:47;;;;;;;25.92;13.23;;;;;;;9.26;82.53;96082.72;5017551;28;20041;-61
2021/05/01 08:13:13;;;;;;;23.55;12.82;;;;;;;10.28;76.76;96088.75;5007637;28;20136;-62
2021/05/01 08:15:39;;;;;;;27.17;13.48;;;;;;;9.85;78.06;96081.00;5015430;28;20133;-62
2021/05/01 08:18:07;;;;;;;26.45;12.77;;;;;;;9.74;78.09;96078.16;5015823;28;20041;-61
2021/05/01 08:20:34;;;;;;;26.23;13.38;;;;;;;10.47;75.06;96082.28;5017506;28;20063;-60
2021/05/01 08:23:00;;;;;;;21.80;11.68;;;;;;;10.88;72.92;96082.94;5013475;28;20044;-61
2021/05/01 08:25:25;;;;;;;22.35;10.60;;;;;;;11.14;72.23;96080.31;5015160;28;20053;-61
2021/05/01 08:27:51;;;;;;;22.70;11.65;;;;;;;11.33;70.80;96087.44;4998022;28;20044;-60
2021/05/01 08:30:17;;;;;;;20.70;12.43;;;;;;;9.50;76.00;96089.63;5015489;28;20029;-61
2021/05/01 08:32:44;;;;;;;22.55;11.35;;;;;;;9.52;77.63;96092.75;5016814;28;20108;-61
2021/05/01 08:35:11;;;;;;;24.58;11.75;;;;;;;9.15;79.69;96094.31;5008626;28;20667;-61
2021/05/01 08:37:37;;;;;;;24.92;11.98;;;;;;;9.72;78.61;96098.81;5019597;28;20407;-61
2021/05/01 08:40:05;;;;;;;24.67;12.48;;;;;;;10.24;76.45;96104.38;5017283;28;20049;-61
2021/05/01 08:42:30;;;;;;;27.10;13.32;;;;;;;9.90;77.32;96102.53;5014850;28;20041;-62
2021/05/01 08:45:01;;;;;;;25.02;12.82;;;;;;;9.88;76.15;96104.06;5018673;28;20181;-61
2021/05/01 08:47:27;;;;;;;25.88;12.88;;;;;;;10.27;75.54;96104.41;5013997;28;20073;-60
2021/05/01 08:49:52;;;;;;;21.00;10.77;;;;;;;10.63;74.01;96112.91;5016536;28;20048;-61
2021/05/01 08:52:18;;;;;;;21.23;11.82;;;;;;;10.79;72.94;96115.34;5007715;28;20495;-62
2021/05/01 08:54:46;;;;;;;24.77;12.02;;;;;;;10.82;73.03;96113.81;5016960;28;20080;-62
2021/05/01 08:57:24;;;;;;;24.50;13.05;;;;;;;10.24;75.08;96105.16;5013600;28;20385;-62
2021/05/01 08:59:50;;;;;;;23.17;12.25;;;;;;;10.55;74.78;96102.28;5019186;28;20136;-62
2021/05/01 09:02:19;;;;;;;24.80;12.35;;;;;;;10.86;74.05;96101.72;4993839;28;20127;-59
2021/05/01 09:04:49;;;;;;;26.83;12.82;;;;;;;9.92;76.32;96107.59;5017263;28;20049;-61
2021/05/01 09:07:17;;;;;;;38.33;17.58;;;;;;;9.38;78.35;96105.13;5012651;28;20045;-62
2021/05/01 09:09:43;;;;;;;38.88;19.08;;;;;;;9.28;79.86;96110.47;5018527;28;20387;-62
2021/05/01 09:12:08;;;;;;;44.92;20.27;;;;;;;9.40;78.18;96106.69;5012610;28;20046;-60
2021/05/01 09:14:36;;;;;;;37.58;19.00;;;;;;;9.59;78.13;96105.72;5018932;28;20056;-63
2021/05/01 09:17:03;;;;;;;34.50;18.00;;;;;;;9.55;78.64;96102.97;5024255;28;20041;-62
2021/05/01 09:19:39;;;;;;;34.67;16.88;;;;;;;9.90;77.54;96101.72;5017943;28;20081;-60
2021/05/01 09:22:12;;;;;;;34.20;15.52;;;;;;;9.50;77.23;96101.34;5013848;28;20052;-61
2021/05/01 09:24:44;;;;;;;30.42;14.48;;;;;;;10.00;77.42;96103.00;5019914;28;20403;-61
2021/05/01 09:27:15;;;;;;;32.75;17.08;;;;;;;9.90;76.73;96099.00;5013247;28;20442;-61
2021/05/01 09:29:40;;;;;;;32.72;16.02;;;;;;;9.52;77.55;96112.69;5017281;28;20087;-61
2021/05/01 09:32:19;;;;;;;33.75;16.65;;;;;;;8.91;79.88;96111.16;5014654;28;20124;-60
2021/05/01 09:34:50;;;;;;;32.80;14.75;;;;;;;9.33;79.59;96107.41;5018732;28;20046;-61
2021/05/01 09:37:21;;;;;;;32.13;15.40;;;;;;;10.16;76.20;96109.00;5013221;28;20088;-62
2021/05/01 09:39:59;;;;;;;29.85;15.15;;;;;;;10.36;74.82;96109.59;5019703;28;20526;-61
2021/05/01 09:42:31;;;;;;;28.98;14.77;;;;;;;10.68;74.03;96107.06;5014699;28;20576;-62
2021/05/01 09:45:07;;;;;;;43.33;22.50;;;;;;;10.88;73.28;96104.06;5015792;28;20120;-60
2021/05/01 09:47:33;;;;;;;32.70;16.05;;;;;;;10.22;74.69;96107.50;5018348;28;20393;-62
2021/05/01 09:49:59;;;;;;;55.15;23.05;;;;;;;10.03;76.49;96094.84;5024635;28;20128;-60
2021/05/01 09:52:24;;;;;;;31.20;14.52;;;;;;;10.51;75.64;96094.03;5004830;28;20196;-62
2021/05/01 09:54:51;;;;;;;36.50;16.55;;;;;;;10.49;75.12;96097.16;5019679;28;20041;-62
2021/05/01 09:57:21;;;;;;;39.20;17.25;;;;;;;10.21;75.46;96092.25;5014065;28;20044;-62
2021/05/01 09:59:47;;;;;;;;;;;;;;;10.59;75.74;96092.13;5016742;28;20045;-60
2021/05/01 10:02:15;;;;;;;31.25;15.88;;;;;;;11.19;73.46;96093.66;5006320;28;20378;-60
2021/05/01 10:04:57;;;;;;;29.50;15.38;;;;;;;11.58;70.66;96093.78;5014395;28;20415;-59
2021/05/01 10:07:23;;;;;;;23.70;13.10;;;;;;;11.75;69.70;96084.00;5011831;28;20054;-62
2021/05/01 10:09:55;;;;;;;29.75;14.75;;;;;;;12.04;68.56;96084.84;5001249;28;20095;-62
2021/05/01 10:12:21;;;;;;;29.75;13.50;;;;;;;12.40;67.31;96087.59;5010118;28;20041;-59
2021/05/01 10:14:48;;;;;;;30.45;14.82;;;;;;;12.73;66.34;96082.06;5021891;28;20049;-62
2021/05/01 10:17:17;;;;;;;25.05;13.48;;;;;;;12.68;65.27;96079.75;5015680;28;20045;-61
2021/05/01 10:20:00;;;;;;;25.27;13.85;;;;;;;13.18;64.01;96085.06;5013706;28;20444;-63
2021/05/01 10:22:31;;;;;;;25.70;15.05;;;;;;;13.15;62.71;96083.91;5011511;28;20151;-62
2021/05/01 10:24:59;;;;;;;28.13;16.25;;;;;;;13.03;64.18;96091.81;5012678;28;20038;-59
2021/05/01 10:27:25;;;;;;;24.92;13.05;;;;;;;11.74;67.61;96087.94;5011665;28;20045;-62
2021/05/01 10:30:03;;;;;;;30.95;15.80;;;;;;;10.66;72.27;96089.44;5022905;28;20045;-62
2021/05/01 10:32:41;;;;;;;37.80;18.92;;;;;;;10.87;72.39;96080.56;5013814;28;20589;-62
2021/05/01 10:35:08;;;;;;;28.55;14.88;;;;;;;11.17;71.35;96074.84;5017506;28;20467;-63
2021/05/01 10:37:39;;;;;;;37.15;17.63;;;;;;;11.06;71.59;96065.78;5026784;28;20040;-62
2021/05/01 10:40:06;;;;;;;28.23;14.45;;;;;;;10.43;74.09;96062.31;5017273;28;20041;-62
2021/05/01 10:42:31;;;;;;;27.90;14.95;;;;;;;10.28;74.88;96058.66;5020366;28;20567;-62
2021/05/01 10:44:58;;;;;;;30.52;15.63;;;;;;;9.64;77.37;96062.44;5024157;28;20065;-61
2021/05/01 10:47:24;;;;;;;30.25;15.20;;;;;;;9.72;76.42;96060.53;5018386;28;20108;-61
2021/05/01 10:49:50;;;;;;;29.27;15.50;;;;;;;9.99;76.30;96060.38;5023358;28;20041;-59
2021/05/01 10:52:18;;;;;;;31.25;16.05;;;;;;;9.69;76.44;96053.88;5017784;28;20037;-60
2021/05/01 10:54:56;;;;;;;30.67;15.88;;;;;;;9.70;76.29;96060.13;5009175;28;20042;-60
2021/05/01 10:57:21;;;;;;;34.25;16.30;;;;;;;9.69;77.36;96053.13;4994148;28;20038;-62
2021/05/01 11:00:16;;;;;;;27.63;14.68;;;;;;;10.04;76.75;96055.34;5002814;28;20061;-61
2021/05/01 11:02:43;;;;;;;28.95;14.48;;;;;;;11.02;72.71;96041.13;4978875;28;20041;-62
2021/05/01 11:05:10;;;;;;;26.55;14.10;;;;;;;11.06;71.63;96050.13;4997833;28;20038;-63
2021/05/01 11:07:57;;;;;;;26.33;14.43;;;;;;;10.93;72.66;96050.84;5000045;28;20077;-61
2021/05/01 11:10:23;;;;;;;35.25;18.08;;;;;;;10.51;74.19;96039.28;4997838;28;20414;-62
2021/05/01 11:12:55;;;;;;;29.60;14.48;;;;;;;10.33;74.31;96041.91;5022465;28;20041;-62
2021/05/01 11:15:23;;;;;;;24.75;13.43;;;;;;;11.19;73.58;96041.56;5018143;28;20041;-63
2021/05/01 11:18:05;;;;;;;29.05;14.82;;;;;;;10.73;73.78;96050.38;5022277;28;20050;-60
2021/05/01 11:20:31;;;;;;;29.42;13.93;;;;;;;11.08;71.32;96041.53;5022235;28;20069;-61
2021/05/01 11:22:57;;;;;;;28.00;14.27;;;;;;;11.79;69.41;96040.94;5019599;28;20041;-62
2021/05/01 11:25:23;;;;;;;32.38;17.13;;;;;;;10.75;72.68;96037.06;5017142;28;20551;-61